sensor_id;sensor_type;location;lat;lon;timestamp;pressure;altitude;pressure_sealevel;temperature
72336;BMP280;62171;48.446;8.834;2022-08-19T00:00:18;97167.56;;;18.90
72336;BMP280;62171;48.446;8.834;2022-08-19T00:02:44;97165.59;;;18.91
72336;BMP280;62171;48.446;8.834;2022-08-19T00:05:12;97170.44;;;18.92
72336;BMP280;62171;48.446;8.834;2022-08-19T00:07:38;97171.50;;;19.00
72336;BMP280;62171;48.446;8.834;2022-08-19T00:10:07;97169.09;;;18.97
72336;BMP280;62171;48.446;8.834;2022-08-19T00:12:33;97173.34;;;18.94
72336;BMP280;62171;48.446;8.834;2022-08-19T00:14:59;97171.88;;;19.08
72336;BMP280;62171;48.446;8.834;2022-08-19T00:17:24;97169.34;;;18.99
72336;BMP280;62171;48.446;8.834;2022-08-19T00:19:49;97167.81;;;18.92
72336;BMP280;62171;48.446;8.834;2022-08-19T00:22:15;97163.91;;;18.88
72336;BMP280;62171;48.446;8.834;2022-08-19T00:24:42;97157.19;;;18.87
72336;BMP280;62171;48.446;8.834;2022-08-19T00:27:09;97167.72;;;18.87
72336;BMP280;62171;48.446;8.834;2022-08-19T00:29:34;97163.81;;;18.82
72336;BMP280;62171;48.446;8.834;2022-08-19T00:31:59;97162.00;;;18.88
72336;BMP280;62171;48.446;8.834;2022-08-19T00:34:26;97169.09;;;18.82
72336;BMP280;62171;48.446;8.834;2022-08-19T00:36:54;97170.47;;;18.78
72336;BMP280;62171;48.446;8.834;2022-08-19T00:39:20;97170.00;;;18.79
72336;BMP280;62171;48.446;8.834;2022-08-19T00:41:46;97176.00;;;18.80
72336;BMP280;62171;48.446;8.834;2022-08-19T00:44:20;97183.91;;;18.80
72336;BMP280;62171;48.446;8.834;2022-08-19T00:46:48;97188.63;;;18.76
72336;BMP280;62171;48.446;8.834;2022-08-19T00:49:27;97180.81;;;18.67
72336;BMP280;62171;48.446;8.834;2022-08-19T00:52:05;97182.63;;;18.61
72336;BMP280;62171;48.446;8.834;2022-08-19T00:54:32;97184.00;;;18.56
72336;BMP280;62171;48.446;8.834;2022-08-19T00:56:58;97182.47;;;18.50
72336;BMP280;62171;48.446;8.834;2022-08-19T00:59:25;97169.31;;;18.50
72336;BMP280;62171;48.446;8.834;2022-08-19T01:01:50;97175.09;;;18.54
72336;BMP280;62171;48.446;8.834;2022-08-19T01:04:16;97172.28;;;18.57
72336;BMP280;62171;48.446;8.834;2022-08-19T01:06:41;97169.19;;;18.59
72336;BMP280;62171;48.446;8.834;2022-08-19T01:09:07;97168.31;;;18.62
72336;BMP280;62171;48.446;8.834;2022-08-19T01:11:36;97167.66;;;18.67
72336;BMP280;62171;48.446;8.834;2022-08-19T01:14:03;97168.66;;;18.84
72336;BMP280;62171;48.446;8.834;2022-08-19T01:16:29;97173.47;;;18.71
72336;BMP280;62171;48.446;8.834;2022-08-19T01:18:55;97176.81;;;18.57
72336;BMP280;62171;48.446;8.834;2022-08-19T01:21:37;97176.13;;;18.56
72336;BMP280;62171;48.446;8.834;2022-08-19T01:24:04;97172.84;;;18.47
72336;BMP280;62171;48.446;8.834;2022-08-19T01:26:29;97174.47;;;18.44
72336;BMP280;62171;48.446;8.834;2022-08-19T01:28:58;97167.56;;;18.47
72336;BMP280;62171;48.446;8.834;2022-08-19T01:31:25;97169.75;;;18.48
72336;BMP280;62171;48.446;8.834;2022-08-19T01:33:54;97169.31;;;18.50
72336;BMP280;62171;48.446;8.834;2022-08-19T01:38:53;97169.03;;;18.48
72336;BMP280;62171;48.446;8.834;2022-08-19T01:41:18;97161.84;;;18.48
72336;BMP280;62171;48.446;8.834;2022-08-19T01:43:44;97168.66;;;18.55
72336;BMP280;62171;48.446;8.834;2022-08-19T01:46:10;97167.22;;;18.54
72336;BMP280;62171;48.446;8.834;2022-08-19T01:48:38;97165.38;;;18.60
72336;BMP280;62171;48.446;8.834;2022-08-19T01:51:04;97159.31;;;18.54
72336;BMP280;62171;48.446;8.834;2022-08-19T01:53:30;97165.13;;;18.43
72336;BMP280;62171;48.446;8.834;2022-08-19T01:55:55;97161.84;;;18.48
72336;BMP280;62171;48.446;8.834;2022-08-19T01:58:24;97154.94;;;18.36
72336;BMP280;62171;48.446;8.834;2022-08-19T02:00:50;97159.22;;;18.34
72336;BMP280;62171;48.446;8.834;2022-08-19T02:03:16;97152.59;;;18.24
72336;BMP280;62171;48.446;8.834;2022-08-19T02:05:42;97144.69;;;18.24
72336;BMP280;62171;48.446;8.834;2022-08-19T02:08:09;97151.69;;;18.27
72336;BMP280;62171;48.446;8.834;2022-08-19T02:10:40;97153.59;;;18.26
72336;BMP280;62171;48.446;8.834;2022-08-19T02:13:06;97147.59;;;18.26
72336;BMP280;62171;48.446;8.834;2022-08-19T02:15:32;97154.31;;;18.27
72336;BMP280;62171;48.446;8.834;2022-08-19T02:17:57;97146.44;;;18.27
72336;BMP280;62171;48.446;8.834;2022-08-19T02:20:23;97147.41;;;18.29
72336;BMP280;62171;48.446;8.834;2022-08-19T02:22:49;97145.16;;;18.37
72336;BMP280;62171;48.446;8.834;2022-08-19T02:25:14;97148.41;;;18.32
72336;BMP280;62171;48.446;8.834;2022-08-19T02:27:40;97150.78;;;18.30
72336;BMP280;62171;48.446;8.834;2022-08-19T02:30:09;97146.78;;;18.20
72336;BMP280;62171;48.446;8.834;2022-08-19T02:32:34;97139.53;;;18.15
72336;BMP280;62171;48.446;8.834;2022-08-19T02:35:00;97141.69;;;18.16
72336;BMP280;62171;48.446;8.834;2022-08-19T02:37:26;97137.81;;;18.12
72336;BMP280;62171;48.446;8.834;2022-08-19T02:40:10;97135.50;;;18.04
72336;BMP280;62171;48.446;8.834;2022-08-19T02:42:36;97130.56;;;18.06
72336;BMP280;62171;48.446;8.834;2022-08-19T02:45:01;97145.19;;;17.98
72336;BMP280;62171;48.446;8.834;2022-08-19T02:47:27;97143.03;;;17.97
72336;BMP280;62171;48.446;8.834;2022-08-19T02:49:52;97147.19;;;18.03
72336;BMP280;62171;48.446;8.834;2022-08-19T02:52:18;97152.09;;;17.96
72336;BMP280;62171;48.446;8.834;2022-08-19T02:54:43;97151.09;;;17.93
72336;BMP280;62171;48.446;8.834;2022-08-19T02:57:09;97149.19;;;17.94
72336;BMP280;62171;48.446;8.834;2022-08-19T02:59:34;97149.00;;;17.97
72336;BMP280;62171;48.446;8.834;2022-08-19T03:02:00;97145.78;;;18.02
72336;BMP280;62171;48.446;8.834;2022-08-19T03:04:26;97151.59;;;18.06
72336;BMP280;62171;48.446;8.834;2022-08-19T03:06:51;97142.06;;;18.09
72336;BMP280;62171;48.446;8.834;2022-08-19T03:09:18;97132.00;;;18.07
72336;BMP280;62171;48.446;8.834;2022-08-19T03:11:45;97141.06;;;18.06
72336;BMP280;62171;48.446;8.834;2022-08-19T03:14:11;97137.72;;;18.06
72336;BMP280;62171;48.446;8.834;2022-08-19T03:16:46;97145.13;;;18.07
72336;BMP280;62171;48.446;8.834;2022-08-19T03:19:13;97139.78;;;18.17
72336;BMP280;62171;48.446;8.834;2022-08-19T03:21:39;97144.69;;;18.24
72336;BMP280;62171;48.446;8.834;2022-08-19T03:24:07;97142.44;;;18.17
72336;BMP280;62171;48.446;8.834;2022-08-19T03:26:34;97148.22;;;18.06
72336;BMP280;62171;48.446;8.834;2022-08-19T03:29:04;97141.41;;;17.99
72336;BMP280;62171;48.446;8.834;2022-08-19T03:31:30;97142.63;;;17.89
72336;BMP280;62171;48.446;8.834;2022-08-19T03:33:56;97142.31;;;17.96
72336;BMP280;62171;48.446;8.834;2022-08-19T03:36:24;97138.28;;;17.86
72336;BMP280;62171;48.446;8.834;2022-08-19T03:38:52;97144.59;;;17.80
72336;BMP280;62171;48.446;8.834;2022-08-19T03:41:27;97153.22;;;17.80
72336;BMP280;62171;48.446;8.834;2022-08-19T03:43:53;97153.59;;;17.88
72336;BMP280;62171;48.446;8.834;2022-08-19T03:46:28;97145.44;;;17.86
72336;BMP280;62171;48.446;8.834;2022-08-19T03:48:56;97159.59;;;17.88
72336;BMP280;62171;48.446;8.834;2022-08-19T03:51:30;97161.78;;;17.90
72336;BMP280;62171;48.446;8.834;2022-08-19T03:53:57;97167.31;;;17.92
72336;BMP280;62171;48.446;8.834;2022-08-19T03:56:24;97170.69;;;17.92
72336;BMP280;62171;48.446;8.834;2022-08-19T03:58:54;97160.63;;;17.91
72336;BMP280;62171;48.446;8.834;2022-08-19T04:01:22;97155.63;;;17.93
72336;BMP280;62171;48.446;8.834;2022-08-19T04:03:48;97159.97;;;17.96
72336;BMP280;62171;48.446;8.834;2022-08-19T04:06:22;97166.56;;;17.91
72336;BMP280;62171;48.446;8.834;2022-08-19T04:08:51;97161.56;;;17.79
72336;BMP280;62171;48.446;8.834;2022-08-19T04:11:19;97161.47;;;17.73
72336;BMP280;62171;48.446;8.834;2022-08-19T04:13:49;97160.91;;;17.69
72336;BMP280;62171;48.446;8.834;2022-08-19T04:16:19;97159.00;;;17.70
72336;BMP280;62171;48.446;8.834;2022-08-19T04:18:45;97164.53;;;17.72
72336;BMP280;62171;48.446;8.834;2022-08-19T04:21:20;97167.56;;;17.79
72336;BMP280;62171;48.446;8.834;2022-08-19T04:23:47;97169.06;;;17.71
72336;BMP280;62171;48.446;8.834;2022-08-19T04:26:18;97167.34;;;17.68
72336;BMP280;62171;48.446;8.834;2022-08-19T04:28:45;97160.00;;;17.72
72336;BMP280;62171;48.446;8.834;2022-08-19T04:31:20;97155.28;;;17.76
72336;BMP280;62171;48.446;8.834;2022-08-19T04:33:46;97154.25;;;17.83
72336;BMP280;62171;48.446;8.834;2022-08-19T04:36:23;97161.66;;;17.84
72336;BMP280;62171;48.446;8.834;2022-08-19T04:38:49;97158.59;;;17.86
72336;BMP280;62171;48.446;8.834;2022-08-19T04:41:15;97156.53;;;17.90
72336;BMP280;62171;48.446;8.834;2022-08-19T04:44:00;97147.91;;;17.89
72336;BMP280;62171;48.446;8.834;2022-08-19T04:46:26;97156.25;;;17.88
72336;BMP280;62171;48.446;8.834;2022-08-19T04:48:51;97142.38;;;17.87
72336;BMP280;62171;48.446;8.834;2022-08-19T04:51:17;97151.72;;;17.88
72336;BMP280;62171;48.446;8.834;2022-08-19T04:53:43;97158.25;;;17.93
72336;BMP280;62171;48.446;8.834;2022-08-19T04:56:11;97168.53;;;18.05
72336;BMP280;62171;48.446;8.834;2022-08-19T04:58:38;97172.69;;;17.97
72336;BMP280;62171;48.446;8.834;2022-08-19T05:01:04;97178.13;;;17.94
72336;BMP280;62171;48.446;8.834;2022-08-19T05:03:30;97186.91;;;17.91
72336;BMP280;62171;48.446;8.834;2022-08-19T05:06:04;97182.25;;;17.86
72336;BMP280;62171;48.446;8.834;2022-08-19T05:08:29;97186.78;;;17.85
72336;BMP280;62171;48.446;8.834;2022-08-19T05:10:55;97189.09;;;17.92
72336;BMP280;62171;48.446;8.834;2022-08-19T05:13:22;97196.97;;;17.92
72336;BMP280;62171;48.446;8.834;2022-08-19T05:15:58;97210.06;;;18.01
72336;BMP280;62171;48.446;8.834;2022-08-19T05:18:23;97211.03;;;18.04
72336;BMP280;62171;48.446;8.834;2022-08-19T05:21:09;97218.59;;;18.11
72336;BMP280;62171;48.446;8.834;2022-08-19T05:23:54;97227.22;;;18.12
72336;BMP280;62171;48.446;8.834;2022-08-19T05:26:19;97239.81;;;18.07
72336;BMP280;62171;48.446;8.834;2022-08-19T05:28:44;97236.59;;;18.03
72336;BMP280;62171;48.446;8.834;2022-08-19T05:31:10;97229.34;;;17.98
72336;BMP280;62171;48.446;8.834;2022-08-19T05:33:35;97236.34;;;18.01
72336;BMP280;62171;48.446;8.834;2022-08-19T05:36:02;97236.06;;;17.99
72336;BMP280;62171;48.446;8.834;2022-08-19T05:38:27;97245.91;;;18.13
72336;BMP280;62171;48.446;8.834;2022-08-19T05:40:55;97244.09;;;18.20
72336;BMP280;62171;48.446;8.834;2022-08-19T05:43:20;97239.00;;;18.16
72336;BMP280;62171;48.446;8.834;2022-08-19T05:45:45;97245.91;;;18.13
72336;BMP280;62171;48.446;8.834;2022-08-19T05:48:11;97246.91;;;18.16
72336;BMP280;62171;48.446;8.834;2022-08-19T05:50:39;97244.28;;;18.16
72336;BMP280;62171;48.446;8.834;2022-08-19T05:53:04;97247.53;;;18.11
72336;BMP280;62171;48.446;8.834;2022-08-19T05:55:30;97249.44;;;18.10
72336;BMP280;62171;48.446;8.834;2022-08-19T05:57:56;97246.81;;;18.10
72336;BMP280;62171;48.446;8.834;2022-08-19T06:00:22;97242.28;;;18.11
72336;BMP280;62171;48.446;8.834;2022-08-19T06:02:48;97243.56;;;18.16
72336;BMP280;62171;48.446;8.834;2022-08-19T06:05:13;97246.31;;;18.21
72336;BMP280;62171;48.446;8.834;2022-08-19T06:07:39;97255.19;;;18.24
72336;BMP280;62171;48.446;8.834;2022-08-19T06:10:07;97253.09;;;18.28
72336;BMP280;62171;48.446;8.834;2022-08-19T06:12:34;97256.56;;;18.34
72336;BMP280;62171;48.446;8.834;2022-08-19T06:15:03;97262.56;;;18.34
72336;BMP280;62171;48.446;8.834;2022-08-19T06:17:30;97258.03;;;18.35
72336;BMP280;62171;48.446;8.834;2022-08-19T06:19:56;97253.63;;;18.32
72336;BMP280;62171;48.446;8.834;2022-08-19T06:22:22;97261.75;;;18.28
72336;BMP280;62171;48.446;8.834;2022-08-19T06:24:47;97257.91;;;18.29
72336;BMP280;62171;48.446;8.834;2022-08-19T06:27:13;97259.50;;;18.36
72336;BMP280;62171;48.446;8.834;2022-08-19T06:29:39;97251.75;;;18.32
72336;BMP280;62171;48.446;8.834;2022-08-19T06:32:04;97253.78;;;18.37
72336;BMP280;62171;48.446;8.834;2022-08-19T06:34:32;97247.13;;;18.42
72336;BMP280;62171;48.446;8.834;2022-08-19T06:36:59;97253.53;;;18.50
72336;BMP280;62171;48.446;8.834;2022-08-19T06:39:30;97255.19;;;18.62
72336;BMP280;62171;48.446;8.834;2022-08-19T06:41:59;97257.16;;;18.67
72336;BMP280;62171;48.446;8.834;2022-08-19T06:44:27;97256.63;;;18.77
72336;BMP280;62171;48.446;8.834;2022-08-19T06:46:54;97263.72;;;18.86
72336;BMP280;62171;48.446;8.834;2022-08-19T06:49:19;97259.00;;;18.90
72336;BMP280;62171;48.446;8.834;2022-08-19T06:51:46;97262.72;;;18.98
72336;BMP280;62171;48.446;8.834;2022-08-19T06:54:13;97263.41;;;19.13
72336;BMP280;62171;48.446;8.834;2022-08-19T06:56:39;97265.78;;;19.26
72336;BMP280;62171;48.446;8.834;2022-08-19T06:59:17;97270.66;;;19.33
72336;BMP280;62171;48.446;8.834;2022-08-19T07:01:48;97268.38;;;19.40
72336;BMP280;62171;48.446;8.834;2022-08-19T07:04:17;97276.47;;;19.37
72336;BMP280;62171;48.446;8.834;2022-08-19T07:06:43;97273.91;;;19.42
72336;BMP280;62171;48.446;8.834;2022-08-19T07:09:10;97273.72;;;19.46
72336;BMP280;62171;48.446;8.834;2022-08-19T07:11:36;97273.25;;;19.47
72336;BMP280;62171;48.446;8.834;2022-08-19T07:14:02;97276.44;;;19.51
72336;BMP280;62171;48.446;8.834;2022-08-19T07:16:28;97281.25;;;19.53
72336;BMP280;62171;48.446;8.834;2022-08-19T07:18:55;97279.63;;;19.55
72336;BMP280;62171;48.446;8.834;2022-08-19T07:21:25;97267.78;;;19.51
72336;BMP280;62171;48.446;8.834;2022-08-19T07:23:54;97272.63;;;19.52
72336;BMP280;62171;48.446;8.834;2022-08-19T07:26:33;97266.78;;;19.48
72336;BMP280;62171;48.446;8.834;2022-08-19T07:28:59;97269.44;;;19.48
72336;BMP280;62171;48.446;8.834;2022-08-19T07:31:27;97266.78;;;19.48
72336;BMP280;62171;48.446;8.834;2022-08-19T07:33:54;97269.69;;;19.50
72336;BMP280;62171;48.446;8.834;2022-08-19T07:36:24;97266.69;;;19.57
72336;BMP280;62171;48.446;8.834;2022-08-19T07:38:51;97260.38;;;19.69
72336;BMP280;62171;48.446;8.834;2022-08-19T07:41:23;97267.91;;;19.76
72336;BMP280;62171;48.446;8.834;2022-08-19T07:43:49;97268.16;;;19.78
72336;BMP280;62171;48.446;8.834;2022-08-19T07:46:15;97273.25;;;19.82
72336;BMP280;62171;48.446;8.834;2022-08-19T07:48:43;97269.16;;;20.01
72336;BMP280;62171;48.446;8.834;2022-08-19T07:51:15;97270.53;;;19.96
72336;BMP280;62171;48.446;8.834;2022-08-19T07:53:41;97268.31;;;19.89
72336;BMP280;62171;48.446;8.834;2022-08-19T07:56:07;97266.31;;;19.84
72336;BMP280;62171;48.446;8.834;2022-08-19T07:58:35;97262.69;;;19.82
72336;BMP280;62171;48.446;8.834;2022-08-19T08:01:02;97262.69;;;19.82
72336;BMP280;62171;48.446;8.834;2022-08-19T08:03:28;97270.88;;;19.84
72336;BMP280;62171;48.446;8.834;2022-08-19T08:06:13;97276.22;;;19.89
72336;BMP280;62171;48.446;8.834;2022-08-19T08:08:58;97272.84;;;19.89
72336;BMP280;62171;48.446;8.834;2022-08-19T08:11:43;97269.16;;;20.01
72336;BMP280;62171;48.446;8.834;2022-08-19T08:14:15;97272.13;;;20.08
72336;BMP280;62171;48.446;8.834;2022-08-19T08:16:41;97283.06;;;20.22
72336;BMP280;62171;48.446;8.834;2022-08-19T08:19:09;97267.72;;;20.26
72336;BMP280;62171;48.446;8.834;2022-08-19T08:21:35;97264.78;;;20.44
72336;BMP280;62171;48.446;8.834;2022-08-19T08:24:00;97271.19;;;20.57
72336;BMP280;62171;48.446;8.834;2022-08-19T08:26:26;97264.53;;;20.67
72336;BMP280;62171;48.446;8.834;2022-08-19T08:28:52;97279.50;;;20.76
72336;BMP280;62171;48.446;8.834;2022-08-19T08:31:17;97261.50;;;20.74
72336;BMP280;62171;48.446;8.834;2022-08-19T08:33:47;97268.78;;;20.85
72336;BMP280;62171;48.446;8.834;2022-08-19T08:36:13;97270.97;;;20.92
72336;BMP280;62171;48.446;8.834;2022-08-19T08:38:40;97278.91;;;20.92
72336;BMP280;62171;48.446;8.834;2022-08-19T08:41:22;97276.53;;;20.94
72336;BMP280;62171;48.446;8.834;2022-08-19T08:43:53;97278.69;;;20.90
72336;BMP280;62171;48.446;8.834;2022-08-19T08:46:24;97281.72;;;20.83
72336;BMP280;62171;48.446;8.834;2022-08-19T08:48:57;97286.44;;;20.99
72336;BMP280;62171;48.446;8.834;2022-08-19T08:51:34;97282.84;;;21.02
72336;BMP280;62171;48.446;8.834;2022-08-19T08:54:02;97287.44;;;21.07
72336;BMP280;62171;48.446;8.834;2022-08-19T08:56:28;97290.72;;;21.27
72336;BMP280;62171;48.446;8.834;2022-08-19T08:58:59;97283.72;;;21.24
72336;BMP280;62171;48.446;8.834;2022-08-19T09:01:27;97283.66;;;21.13
72336;BMP280;62171;48.446;8.834;2022-08-19T09:03:53;97283.66;;;21.13
72336;BMP280;62171;48.446;8.834;2022-08-19T09:14:32;97279.69;;;21.35
72336;BMP280;62171;48.446;8.834;2022-08-19T09:16:59;97281.97;;;21.16
72336;BMP280;62171;48.446;8.834;2022-08-19T09:19:24;97284.38;;;21.14
72336;BMP280;62171;48.446;8.834;2022-08-19T09:21:50;97281.66;;;21.03
72336;BMP280;62171;48.446;8.834;2022-08-19T09:24:16;97287.63;;;20.98
72336;BMP280;62171;48.446;8.834;2022-08-19T09:26:41;97280.53;;;20.84
72336;BMP280;62171;48.446;8.834;2022-08-19T09:29:09;97280.28;;;20.82
72336;BMP280;62171;48.446;8.834;2022-08-19T09:31:35;97286.09;;;20.86
72336;BMP280;62171;48.446;8.834;2022-08-19T09:34:00;97287.09;;;20.94
72336;BMP280;62171;48.446;8.834;2022-08-19T09:36:30;97298.63;;;20.91
72336;BMP280;62171;48.446;8.834;2022-08-19T09:38:58;97282.84;;;21.02
72336;BMP280;62171;48.446;8.834;2022-08-19T09:41:25;97288.56;;;20.95
72336;BMP280;62171;48.446;8.834;2022-08-19T09:43:53;97290.88;;;20.87
72336;BMP280;62171;48.446;8.834;2022-08-19T09:46:22;97301.94;;;20.86
72336;BMP280;62171;48.446;8.834;2022-08-19T09:48:47;97294.03;;;20.91
72336;BMP280;62171;48.446;8.834;2022-08-19T09:51:20;97307.53;;;20.93
72336;BMP280;62171;48.446;8.834;2022-08-19T09:53:47;97305.34;;;20.92
72336;BMP280;62171;48.446;8.834;2022-08-19T09:56:16;97302.16;;;20.88
72336;BMP280;62171;48.446;8.834;2022-08-19T09:58:42;97309.59;;;20.84
72336;BMP280;62171;48.446;8.834;2022-08-19T10:01:08;97307.63;;;20.79
72336;BMP280;62171;48.446;8.834;2022-08-19T10:03:35;97315.72;;;20.70
72336;BMP280;62171;48.446;8.834;2022-08-19T10:06:03;97312.34;;;20.69
72336;BMP280;62171;48.446;8.834;2022-08-19T10:08:38;97318.75;;;20.63
72336;BMP280;62171;48.446;8.834;2022-08-19T10:11:05;97315.44;;;20.62
72336;BMP280;62171;48.446;8.834;2022-08-19T10:13:32;97327.00;;;20.70
72336;BMP280;62171;48.446;8.834;2022-08-19T10:16:11;97314.66;;;20.87
72336;BMP280;62171;48.446;8.834;2022-08-19T10:18:38;97317.78;;;20.86
72336;BMP280;62171;48.446;8.834;2022-08-19T10:21:17;97323.22;;;20.77
72336;BMP280;62171;48.446;8.834;2022-08-19T10:23:45;97322.94;;;20.75
72336;BMP280;62171;48.446;8.834;2022-08-19T10:26:18;97334.56;;;20.83
72336;BMP280;62171;48.446;8.834;2022-08-19T10:28:44;97321.41;;;20.88
72336;BMP280;62171;48.446;8.834;2022-08-19T10:31:16;97320.66;;;20.88
72336;BMP280;62171;48.446;8.834;2022-08-19T10:33:43;97326.47;;;20.92
72336;BMP280;62171;48.446;8.834;2022-08-19T10:36:17;97328.00;;;21.04
72336;BMP280;62171;48.446;8.834;2022-08-19T10:38:45;97324.25;;;21.16
72336;BMP280;62171;48.446;8.834;2022-08-19T10:41:16;97324.78;;;21.20
72336;BMP280;62171;48.446;8.834;2022-08-19T10:43:43;97323.50;;;21.10
72336;BMP280;62171;48.446;8.834;2022-08-19T10:46:12;97323.53;;;21.15
72336;BMP280;62171;48.446;8.834;2022-08-19T10:48:38;97320.66;;;21.13
72336;BMP280;62171;48.446;8.834;2022-08-19T10:51:04;97320.25;;;21.26
72336;BMP280;62171;48.446;8.834;2022-08-19T10:53:49;97316.38;;;21.21
72336;BMP280;62171;48.446;8.834;2022-08-19T10:56:14;97319.91;;;21.13
72336;BMP280;62171;48.446;8.834;2022-08-19T10:58:58;97320.84;;;21.10
72336;BMP280;62171;48.446;8.834;2022-08-19T11:01:25;97321.91;;;21.18
72336;BMP280;62171;48.446;8.834;2022-08-19T11:03:51;97317.56;;;21.15
72336;BMP280;62171;48.446;8.834;2022-08-19T11:06:18;97318.56;;;21.23
72336;BMP280;62171;48.446;8.834;2022-08-19T11:08:44;97311.34;;;21.23
72336;BMP280;62171;48.446;8.834;2022-08-19T11:11:11;97309.91;;;21.22
72336;BMP280;62171;48.446;8.834;2022-08-19T11:13:38;97305.34;;;21.23
72336;BMP280;62171;48.446;8.834;2022-08-19T11:16:06;97304.88;;;21.24
72336;BMP280;62171;48.446;8.834;2022-08-19T11:18:43;97303.63;;;21.20
72336;BMP280;62171;48.446;8.834;2022-08-19T11:21:18;97309.34;;;21.13
72336;BMP280;62171;48.446;8.834;2022-08-19T11:23:45;97305.75;;;21.10
72336;BMP280;62171;48.446;8.834;2022-08-19T11:26:11;97308.34;;;21.05
72336;BMP280;62171;48.446;8.834;2022-08-19T11:28:36;97307.84;;;21.06
72336;BMP280;62171;48.446;8.834;2022-08-19T11:31:02;97302.09;;;21.08
72336;BMP280;62171;48.446;8.834;2022-08-19T11:33:30;97307.81;;;21.01
72336;BMP280;62171;48.446;8.834;2022-08-19T11:35:57;97310.94;;;20.99
72336;BMP280;62171;48.446;8.834;2022-08-19T11:38:23;97305.34;;;20.92
72336;BMP280;62171;48.446;8.834;2022-08-19T11:40:56;97301.94;;;20.86
72336;BMP280;62171;48.446;8.834;2022-08-19T11:43:22;97321.00;;;20.70
72336;BMP280;62171;48.446;8.834;2022-08-19T11:45:47;97316.09;;;20.63
72336;BMP280;62171;48.446;8.834;2022-08-19T11:48:13;97310.31;;;20.59
72336;BMP280;62171;48.446;8.834;2022-08-19T11:50:39;97320.34;;;20.55
72336;BMP280;62171;48.446;8.834;2022-08-19T11:53:08;97321.50;;;20.48
72336;BMP280;62171;48.446;8.834;2022-08-19T11:55:38;97321.44;;;20.43
72336;BMP280;62171;48.446;8.834;2022-08-19T11:58:04;97321.66;;;20.39
72336;BMP280;62171;48.446;8.834;2022-08-19T12:00:32;97325.22;;;20.36
72336;BMP280;62171;48.446;8.834;2022-08-19T12:03:00;97327.00;;;20.45
72336;BMP280;62171;48.446;8.834;2022-08-19T12:05:26;97323.81;;;20.41
72336;BMP280;62171;48.446;8.834;2022-08-19T12:07:51;97322.81;;;20.38
72336;BMP280;62171;48.446;8.834;2022-08-19T12:10:17;97329.88;;;20.47
72336;BMP280;62171;48.446;8.834;2022-08-19T12:12:42;97320.56;;;20.51
72336;BMP280;62171;48.446;8.834;2022-08-19T12:15:10;97315.59;;;20.59
72336;BMP280;62171;48.446;8.834;2022-08-19T12:17:37;97313.03;;;20.64
72336;BMP280;62171;48.446;8.834;2022-08-19T12:20:04;97312.66;;;20.51
72336;BMP280;62171;48.446;8.834;2022-08-19T12:22:30;97313.00;;;20.39
72336;BMP280;62171;48.446;8.834;2022-08-19T12:24:55;97310.13;;;20.37
72336;BMP280;62171;48.446;8.834;2022-08-19T12:27:21;97316.31;;;20.34
72336;BMP280;62171;48.446;8.834;2022-08-19T12:29:46;97321.03;;;20.30
72336;BMP280;62171;48.446;8.834;2022-08-19T12:32:12;97322.91;;;20.24
72336;BMP280;62171;48.446;8.834;2022-08-19T12:34:38;97323.94;;;20.32
72336;BMP280;62171;48.446;8.834;2022-08-19T12:37:05;97321.44;;;20.43
72336;BMP280;62171;48.446;8.834;2022-08-19T12:39:35;97323.25;;;20.57
72336;BMP280;62171;48.446;8.834;2022-08-19T12:42:01;97322.25;;;20.74
72336;BMP280;62171;48.446;8.834;2022-08-19T12:44:26;97313.09;;;21.01
72336;BMP280;62171;48.446;8.834;2022-08-19T12:46:52;97311.16;;;21.33
72336;BMP280;62171;48.446;8.834;2022-08-19T12:49:17;97314.09;;;21.40
72336;BMP280;62171;48.446;8.834;2022-08-19T12:51:42;97299.56;;;21.61
72336;BMP280;62171;48.446;8.834;2022-08-19T12:54:08;97298.44;;;21.84
72336;BMP280;62171;48.446;8.834;2022-08-19T12:56:33;97300.88;;;21.82
72336;BMP280;62171;48.446;8.834;2022-08-19T12:59:04;97298.66;;;21.75
72336;BMP280;62171;48.446;8.834;2022-08-19T13:01:29;97303.94;;;21.75
72336;BMP280;62171;48.446;8.834;2022-08-19T13:03:58;97308.31;;;21.78
72336;BMP280;62171;48.446;8.834;2022-08-19T13:06:23;97307.84;;;21.85
72336;BMP280;62171;48.446;8.834;2022-08-19T13:08:49;97309.56;;;21.94
72336;BMP280;62171;48.446;8.834;2022-08-19T13:11:18;97314.19;;;22.04
72336;BMP280;62171;48.446;8.834;2022-08-19T13:13:45;97318.81;;;22.20
72336;BMP280;62171;48.446;8.834;2022-08-19T13:16:12;97316.66;;;22.30
72336;BMP280;62171;48.446;8.834;2022-08-19T13:18:39;97317.09;;;22.17
72336;BMP280;62171;48.446;8.834;2022-08-19T13:21:07;97322.22;;;22.32
72336;BMP280;62171;48.446;8.834;2022-08-19T13:23:34;97324.16;;;22.48
72336;BMP280;62171;48.446;8.834;2022-08-19T13:26:03;97318.63;;;22.68
72336;BMP280;62171;48.446;8.834;2022-08-19T13:28:29;97315.75;;;22.83
72336;BMP280;62171;48.446;8.834;2022-08-19T13:31:18;97311.16;;;22.67
72336;BMP280;62171;48.446;8.834;2022-08-19T13:34:03;97313.75;;;22.22
72336;BMP280;62171;48.446;8.834;2022-08-19T13:36:34;97312.47;;;21.96
72336;BMP280;62171;48.446;8.834;2022-08-19T13:38:59;97321.72;;;21.69
72336;BMP280;62171;48.446;8.834;2022-08-19T13:41:26;97314.94;;;21.57
72336;BMP280;62171;48.446;8.834;2022-08-19T13:43:53;97316.88;;;21.62
72336;BMP280;62171;48.446;8.834;2022-08-19T13:46:19;97319.09;;;21.75
72336;BMP280;62171;48.446;8.834;2022-08-19T13:48:46;97305.22;;;21.85
72336;BMP280;62171;48.446;8.834;2022-08-19T13:51:12;97308.88;;;22.04
72336;BMP280;62171;48.446;8.834;2022-08-19T13:53:38;97304.16;;;22.36
72336;BMP280;62171;48.446;8.834;2022-08-19T13:56:08;97309.97;;;22.62
72336;BMP280;62171;48.446;8.834;2022-08-19T13:58:33;97314.53;;;22.78
72336;BMP280;62171;48.446;8.834;2022-08-19T14:00:59;97312.63;;;23.01
72336;BMP280;62171;48.446;8.834;2022-08-19T14:03:26;97313.78;;;23.33
72336;BMP280;62171;48.446;8.834;2022-08-19T14:05:51;97309.66;;;23.54
72336;BMP280;62171;48.446;8.834;2022-08-19T14:08:17;97313.38;;;23.81
72336;BMP280;62171;48.446;8.834;2022-08-19T14:10:43;97305.31;;;24.03
72336;BMP280;62171;48.446;8.834;2022-08-19T14:13:09;97305.50;;;24.16
72336;BMP280;62171;48.446;8.834;2022-08-19T14:15:35;97298.78;;;24.44
72336;BMP280;62171;48.446;8.834;2022-08-19T14:18:02;97314.50;;;25.26
72336;BMP280;62171;48.446;8.834;2022-08-19T14:20:27;97306.69;;;25.76
72336;BMP280;62171;48.446;8.834;2022-08-19T14:22:53;97302.00;;;25.82